Time;durP1;ratioP1;P1;durP2;ratioP2;P2;SDS_P1;SDS_P2;PMS_P1;PMS_P2;Temp;Humidity;BMP_temperature;BMP_pressure;BME280_temperature;BME280_humidity;BME280_pressure;Samples;Min_cycle;Max_cycle;Signal;HPM_P1;HPM_P2
2023/02/08 00:03:30;;;;;;;;;;;;;;;17.61;28.92;97415.56;10405833;28;2483;-50
2023/02/08 00:08:30;;;;;;;;;;;;;;;17.60;28.89;97409.53;10424320;28;2581;-53
2023/02/08 00:13:30;;;;;;;;;;;;;;;17.58;28.83;97408.94;10417499;28;3038;-49
2023/02/08 00:18:31;;;;;;;;;;;;;;;17.57;28.77;97409.16;10417578;28;3033;-50
2023/02/08 00:23:31;;;;;;;;;;;;;;;17.56;28.71;97397.06;10416673;28;2664;-50
2023/02/08 00:28:31;;;;;;;;;;;;;;;17.55;28.60;97401.50;10417362;28;2588;-51
2023/02/08 00:33:32;;;;;;;;;;;;;;;17.54;28.53;97397.28;10419897;28;2414;-49
2023/02/08 00:38:32;;;;;;;;;;;;;;;17.56;28.56;97391.81;10419900;28;2507;-47
2023/02/08 00:43:32;;;;;;;;;;;;;;;17.57;28.40;97383.75;10423725;28;2950;-50
2023/02/08 00:48:32;;;;;;;;;;;;;;;17.59;28.36;97391.38;10416370;28;2410;-52
2023/02/08 00:53:36;;;;;;;;;;;;;;;17.58;28.42;97382.72;10420176;28;2588;-52
2023/02/08 00:58:37;;;;;;;;;;;;;;;17.58;28.35;97380.09;10420249;28;2442;-48
2023/02/08 01:03:37;;;;;;;;;;;;;;;17.61;28.39;97390.16;10417648;28;2488;-49
2023/02/08 01:08:38;;;;;;;;;;;;;;;17.63;28.30;97390.75;10428625;28;3018;-50
2023/02/08 01:13:38;;;;;;;;;;;;;;;17.65;28.29;97385.28;10416111;28;2613;-50
2023/02/08 01:18:39;;;;;;;;;;;;;;;17.65;28.40;97388.72;10423377;28;2600;-49
2023/02/08 01:23:39;;;;;;;;;;;;;;;17.67;28.21;97385.88;10414288;28;2584;-48
2023/02/08 01:28:39;;;;;;;;;;;;;;;17.68;28.24;97385.66;10418764;28;3047;-48
2023/02/08 01:33:39;;;;;;;;;;;;;;;17.70;28.27;97383.63;10426011;28;2462;-48
2023/02/08 01:38:40;;;;;;;;;;;;;;;17.69;28.15;97376.78;10419023;28;3033;-50
2023/02/08 01:43:59;;;;;;;;;;;;;;;17.72;28.19;97367.69;10423251;28;2465;-49
2023/02/08 01:49:20;;;;;;;;;;;;;;;17.74;28.00;97373.50;10420377;28;3123;-47
2023/02/08 01:54:20;;;;;;;;;;;;;;;17.75;28.05;97370.66;10425700;28;2623;-49
2023/02/08 01:59:25;;;;;;;;;;;;;;;17.77;27.97;97371.25;10412838;28;2485;-51
2023/02/08 02:04:25;;;;;;;;;;;;;;;17.78;28.00;97369.44;10395054;28;3003;-53
2023/02/08 02:09:31;;;;;;;;;;;;;;;17.80;27.93;97372.66;10424760;28;3006;-47
2023/02/08 02:14:31;;;;;;;;;;;;;;;17.79;27.89;97369.22;10410192;28;2592;-50
2023/02/08 02:19:36;;;;;;;;;;;;;;;17.82;27.79;97362.75;10412413;28;3049;-48
2023/02/08 02:24:54;;;;;;;;;;;;;;;17.81;27.81;97364.56;10414086;28;3368;-46
2023/02/08 02:30:09;;;;;;;;;;;;;;;17.82;27.68;97358.31;10415174;28;2534;-52
2023/02/08 02:35:23;;;;;;;;;;;;;;;17.83;27.67;97352.03;10399817;28;2437;-47
2023/02/08 02:40:34;;;;;;;;;;;;;;;17.83;27.74;97352.03;10399329;28;3029;-51
2023/02/08 02:45:51;;;;;;;;;;;;;;;17.84;27.71;97356.25;10417996;28;2515;-48
2023/02/08 02:50:53;;;;;;;;;;;;;;;17.85;27.66;97354.41;10400739;28;2650;-51
2023/02/08 02:55:55;;;;;;;;;;;;;;;17.87;27.59;97349.75;10392665;28;2553;-47
2023/02/08 03:00:56;;;;;;;;;;;;;;;17.86;27.70;97359.47;10416591;28;2423;-49
2023/02/08 03:05:57;;;;;;;;;;;;;;;17.87;27.59;97358.44;10416562;28;3019;-47
2023/02/08 03:11:02;;;;;;;;;;;;;;;17.87;27.54;97355.00;10415122;28;2462;-51
2023/02/08 03:16:18;;;;;;;;;;;;;;;17.88;27.44;97360.06;10417009;28;3033;-48
2023/02/08 03:21:24;;;;;;;;;;;;;;;17.88;27.66;97359.25;10392409;28;3239;-49
2023/02/08 03:26:54;;;;;;;;;;;;;;;17.90;27.57;97365.06;10409684;28;2427;-50
2023/02/08 03:32:21;;;;;;;;;;;;;;;17.89;27.51;97355.59;10405779;28;2518;-51
2023/02/08 03:37:22;;;;;;;;;;;;;;;17.89;27.51;97345.09;10411811;28;2470;-48
2023/02/08 03:42:23;;;;;;;;;;;;;;;17.91;27.41;97350.16;10419707;28;3030;-52
2023/02/08 03:47:24;;;;;;;;;;;;;;;17.90;27.38;97346.72;10406834;28;2671;-47
2023/02/08 03:52:25;;;;;;;;;;;;;;;17.89;27.42;97345.91;10398702;28;2935;-47
2023/02/08 03:57:26;;;;;;;;;;;;;;;17.91;27.35;97348.31;10405691;28;2589;-50
2023/02/08 04:02:27;;;;;;;;;;;;;;;17.91;27.38;97348.31;10412502;28;2434;-49
2023/02/08 04:07:27;;;;;;;;;;;;;;;17.91;27.36;97335.19;10406325;28;2437;-49
2023/02/08 04:12:27;;;;;;;;;;;;;;;17.89;27.35;97335.41;10407244;28;3050;-52
2023/02/08 04:17:28;;;;;;;;;;;;;;;17.91;27.34;97331.78;10416759;28;2688;-53
2023/02/08 04:22:28;;;;;;;;;;;;;;;17.90;27.24;97336.22;10413261;28;2546;-51
2023/02/08 04:27:28;;;;;;;;;;;;;;;17.89;27.27;97330.16;10418411;28;2471;-50
2023/02/08 04:32:29;;;;;;;;;;;;;;;17.91;27.23;97326.53;10437213;28;2534;-49
2023/02/08 04:37:29;;;;;;;;;;;;;;;17.89;27.20;97324.09;10427280;28;2593;-52
2023/02/08 04:42:29;;;;;;;;;;;;;;;17.90;27.23;97323.09;10418110;28;2574;-52
2023/02/08 04:47:30;;;;;;;;;;;;;;;17.89;27.14;97319.66;10414701;28;2949;-52
2023/02/08 04:52:30;;;;;;;;;;;;;;;17.89;27.19;97322.28;10423726;28;2616;-50
2023/02/08 04:57:30;;;;;;;;;;;;;;;17.91;27.17;97321.28;10415126;28;3319;-50
2023/02/08 05:02:31;;;;;;;;;;;;;;;17.88;27.20;97317.28;10401011;28;2612;-51
2023/02/08 05:07:31;;;;;;;;;;;;;;;17.88;27.17;97314.66;10419261;28;2911;-50
2023/02/08 05:12:31;;;;;;;;;;;;;;;17.91;27.13;97303.69;10417767;28;2994;-52
2023/02/08 05:17:31;;;;;;;;;;;;;;;17.95;27.18;97306.72;10415079;28;2950;-50
2023/02/08 05:22:32;;;;;;;;;;;;;;;18.00;27.06;97309.47;10412353;28;2455;-50
2023/02/08 05:27:32;;;;;;;;;;;;;;;18.01;26.96;97311.06;10415704;28;2530;-48
2023/02/08 05:32:33;;;;;;;;;;;;;;;18.05;27.06;97307.00;10402746;28;2456;-51
2023/02/08 05:37:33;;;;;;;;;;;;;;;18.07;27.06;97313.63;10418881;28;2597;-50
2023/02/08 05:42:33;;;;;;;;;;;;;;;18.07;27.13;97311.00;10417087;28;2570;-50
2023/02/08 05:47:33;;;;;;;;;;;;;;;18.08;26.93;97303.91;10414893;28;2668;-49
2023/02/08 05:52:34;;;;;;;;;;;;;;;18.08;26.95;97306.53;10415633;28;2387;-51
2023/02/08 05:57:34;;;;;;;;;;;;;;;18.09;26.95;97314.22;10424586;28;2613;-52
2023/02/08 06:02:34;;;;;;;;;;;;;;;18.09;26.93;97308.16;10415294;28;2592;-50
2023/02/08 06:07:35;;;;;;;;;;;;;;;18.11;26.80;97313.97;10394841;28;2406;-53
2023/02/08 06:12:35;;;;;;;;;;;;;;;18.12;26.84;97318.19;10423416;28;2583;-50
2023/02/08 06:17:35;;;;;;;;;;;;;;;18.15;26.79;97307.28;10394740;28;3145;-50
2023/02/08 06:22:35;;;;;;;;;;;;;;;18.18;26.83;97310.25;10417526;28;2658;-52
2023/02/08 06:27:36;;;;;;;;;;;;;;;18.20;26.93;97308.22;10414186;28;2534;-49
2023/02/08 06:32:36;;;;;;;;;;;;;;;18.22;26.80;97313.22;10421772;28;3127;-51
2023/02/08 06:37:37;;;;;;;;;;;;;;;18.24;26.70;97317.25;10416331;28;3173;-52
2023/02/08 06:42:37;;;;;;;;;;;;;;;18.29;26.78;97319.22;10419086;28;2963;-52
2023/02/08 06:47:37;;;;;;;;;;;;;;;18.31;26.69;97325.03;10416439;28;2532;-50
2023/02/08 06:52:38;;;;;;;;;;;;;;;18.34;26.55;97340.38;10419541;28;2371;-49
2023/02/08 06:57:58;;;;;;;;;;;;;;;18.37;26.72;97339.91;10419188;28;2588;-50
2023/02/08 07:03:18;;;;;;;;;;;;;;;18.40;26.74;97344.72;10417966;28;2998;-52
2023/02/08 07:08:38;;;;;;;;;;;;;;;18.40;26.71;97340.25;10417345;28;2407;-50
2023/02/08 07:13:58;;;;;;;;;;;;;;;18.42;26.68;97342.69;10417624;28;2581;-47
2023/02/08 07:19:19;;;;;;;;;;;;;;;18.45;26.67;97344.88;10416411;28;2526;-51
2023/02/08 07:24:39;;;;;;;;;;;;;;;18.46;26.61;97342.06;10410424;28;2476;-51
2023/02/08 07:30:00;;;;;;;;;;;;;;;18.48;26.82;97342.63;10411873;28;2587;-49
2023/02/08 07:35:20;;;;;;;;;;;;;;;18.50;26.91;97337.16;10418003;28;3049;-52
2023/02/08 07:40:40;;;;;;;;;;;;;;;18.52;26.91;97338.53;10420711;28;3176;-49
2023/02/08 07:46:07;;;;;;;;;;;;;;;18.54;27.18;97340.94;10412848;28;2579;-52
2023/02/08 07:51:26;;;;;;;;;;;;;;;18.58;27.32;97342.09;10411784;28;2991;-50
2023/02/08 07:56:46;;;;;;;;;;;;;;;18.57;27.56;97335.22;10408885;28;2453;-50
2023/02/08 08:02:07;;;;;;;;;;;;;;;18.60;27.47;97332.16;10415286;28;2994;-49
2023/02/08 08:07:07;;;;;;;;;;;;;;;18.61;27.60;97334.56;10413240;28;3004;-52
2023/02/08 08:12:08;;;;;;;;;;;;;;;18.62;27.71;97338.00;10421584;28;2577;-52
2023/02/08 08:17:08;;;;;;;;;;;;;;;18.60;27.73;97332.16;10396917;28;3119;-51
2023/02/08 08:22:08;;;;;;;;;;;;;;;18.61;27.71;97339.00;10421347;28;2450;-52
2023/02/08 08:27:09;;;;;;;;;;;;;;;18.56;27.69;97341.50;10414670;28;2560;-51
2023/02/08 08:32:09;;;;;;;;;;;;;;;18.54;27.76;97343.56;10426385;28;3045;-49
2023/02/08 08:37:09;;;;;;;;;;;;;;;18.51;27.90;97339.56;10419079;28;2986;-52
2023/02/08 08:42:10;;;;;;;;;;;;;;;18.46;27.80;97342.06;10418785;28;2482;-52
2023/02/08 08:47:10;;;;;;;;;;;;;;;18.43;28.19;97346.91;10425652;28;2419;-52
2023/02/08 08:52:10;;;;;;;;;;;;;;;18.38;28.21;97338.91;10416889;28;2982;-52
2023/02/08 08:57:11;;;;;;;;;;;;;;;18.35;28.30;97344.56;10415792;28;3020;-54
2023/02/08 09:02:11;;;;;;;;;;;;;;;18.29;28.31;97338.38;10425569;28;2416;-50
2023/02/08 09:07:12;;;;;;;;;;;;;;;18.28;28.40;97336.00;10392873;28;2464;-52
2023/02/08 09:12:13;;;;;;;;;;;;;;;18.24;28.27;97335.63;10424950;28;2388;-51
2023/02/08 09:17:13;;;;;;;;;;;;;;;18.20;28.22;97339.69;10414377;28;2475;-53
2023/02/08 09:22:14;;;;;;;;;;;;;;;18.16;28.35;97335.91;10435031;28;2468;-53
2023/02/08 09:27:14;;;;;;;;;;;;;;;18.14;28.36;97342.41;10490614;27;2514;-49
2023/02/08 09:32:15;;;;;;;;;;;;;;;18.12;28.28;97340.00;10468765;28;2439;-53
2023/02/08 09:37:16;;;;;;;;;;;;;;;18.08;28.66;97346.72;10462947;28;3063;-53
2023/02/08 09:42:22;;;;;;;;;;;;;;;18.09;28.92;97342.28;10470818;28;2575;-51
2023/02/08 09:47:25;;;;;;;;;;;;;;;18.08;29.10;97345.91;10467175;28;2570;-50
2023/02/08 09:52:34;;;;;;;;;;;;;;;18.06;29.29;97350.56;10458291;28;2528;-49
2023/02/08 09:57:34;;;;;;;;;;;;;;;18.01;29.42;97359.09;10457776;28;2506;-47
2023/02/08 10:02:34;;;;;;;;;;;;;;;17.99;29.52;97357.72;10457764;28;2173;-52
2023/02/08 10:07:34;;;;;;;;;;;;;;;17.95;29.62;97353.94;10460243;28;2042;-51
2023/02/08 10:12:35;;;;;;;;;;;;;;;17.92;29.47;97343.88;10457494;28;2017;-52
2023/02/08 10:17:41;;;;;;;;;;;;;;;17.89;29.51;97351.16;10456132;28;2026;-51
2023/02/08 10:22:44;;;;;;;;;;;;;;;17.85;29.60;97329.00;10456059;28;2047;-51
2023/02/08 10:27:55;;;;;;;;;;;;;;;17.84;29.51;97327.41;10421945;28;1918;-52
2023/02/08 10:32:59;;;;;;;;;;;;;;;17.82;29.66;97329.44;10401436;28;2030;-50
2023/02/08 10:37:59;;;;;;;;;;;;;;;17.79;29.54;97321.19;10412144;28;2002;-52
2023/02/08 10:43:18;;;;;;;;;;;;;;;17.77;29.64;97324.03;10415879;28;2073;-50
2023/02/08 10:48:33;;;;;;;;;;;;;;;17.75;29.63;97315.59;10403243;28;1945;-51
2023/02/08 10:53:34;;;;;;;;;;;;;;;17.73;29.63;97319.44;10414687;28;2013;-49
2023/02/08 10:58:34;;;;;;;;;;;;;;;17.72;29.65;97302.13;10394358;28;1963;-52
2023/02/08 11:03:38;;;;;;;;;;;;;;;17.69;29.51;97292.84;10411051;28;2014;-50
2023/02/08 11:08:43;;;;;;;;;;;;;;;17.69;29.48;97290.22;10394868;28;2073;-52
2023/02/08 11:13:44;;;;;;;;;;;;;;;17.67;29.54;97284.41;10414566;28;1992;-50
2023/02/08 11:18:49;;;;;;;;;;;;;;;17.67;29.39;97280.97;10418010;28;2041;-52
2023/02/08 11:23:52;;;;;;;;;;;;;;;17.64;29.45;97278.81;10407176;28;1958;-53
2023/02/08 11:28:59;;;;;;;;;;;;;;;17.63;29.47;97283.25;10397432;28;2048;-48
2023/02/08 11:34:00;;;;;;;;;;;;;;;17.62;29.63;97281.63;10417279;28;2094;-51
2023/02/08 11:39:01;;;;;;;;;;;;;;;17.60;29.76;97278.41;10392253;28;1929;-52
2023/02/08 11:44:02;;;;;;;;;;;;;;;17.59;29.56;97281.25;10400643;28;1985;-52
2023/02/08 11:49:02;;;;;;;;;;;;;;;17.57;29.67;97265.75;10411126;28;2025;-53
2023/02/08 11:54:03;;;;;;;;;;;;;;;17.55;29.58;97265.19;10408196;28;1992;-52
2023/02/08 11:59:06;;;;;;;;;;;;;;;17.54;29.56;97250.44;10410092;28;2071;-49
2023/02/08 12:04:07;;;;;;;;;;;;;;;17.54;29.73;97258.31;10413861;28;2040;-53
2023/02/08 12:09:22;;;;;;;;;;;;;;;17.52;29.73;97244.63;10418681;28;2055;-51
2023/02/08 12:14:52;;;;;;;;;;;;;;;17.52;29.52;97249.88;10417147;28;2207;-52
2023/02/08 12:19:57;;;;;;;;;;;;;;;17.51;29.61;97236.97;10407766;28;2123;-50
2023/02/08 12:25:04;;;;;;;;;;;;;;;17.51;29.59;97229.94;10436027;28;1937;-53
2023/02/08 12:30:07;;;;;;;;;;;;;;;17.52;29.63;97217.59;10453398;28;2051;-50
2023/02/08 12:35:30;;;;;;;;;;;;;;;17.51;29.63;97214.19;10451029;28;1921;-52
2023/02/08 12:40:49;;;;;;;;;;;;;;;17.50;29.66;97207.34;10430555;28;2010;-49
2023/02/08 12:45:55;;;;;;;;;;;;;;;17.48;29.65;97201.47;10451525;28;2017;-49
2023/02/08 12:50:58;;;;;;;;;;;;;;;17.48;29.66;97192.81;10449963;28;2081;-53
2023/02/08 12:56:00;;;;;;;;;;;;;;;17.47;29.73;97192.03;10458430;28;2008;-47
2023/02/08 13:01:04;;;;;;;;;;;;;;;17.46;29.74;97177.31;10481795;28;1964;-49
2023/02/08 13:06:05;;;;;;;;;;;;;;;17.45;29.89;97177.53;10466475;28;2054;-50
2023/02/08 13:11:08;;;;;;;;;;;;;;;17.44;29.96;97168.06;10471524;28;2114;-53
2023/02/08 13:16:12;;;;;;;;;;;;;;;17.44;29.96;97162.81;10460806;28;1914;-51
2023/02/08 13:21:14;;;;;;;;;;;;;;;17.43;29.82;97154.16;10469413;28;2145;-50
2023/02/08 13:26:18;;;;;;;;;;;;;;;17.46;29.81;97158.97;10412883;28;2049;-54
2023/02/08 13:31:21;;;;;;;;;;;;;;;17.51;29.92;97151.28;10433996;28;1998;-53
2023/02/08 13:36:38;;;;;;;;;;;;;;;17.56;29.95;97140.91;10429178;28;1993;-50
2023/02/08 13:41:38;;;;;;;;;;;;;;;17.66;29.96;97141.19;10419966;28;2022;-51
2023/02/08 13:46:43;;;;;;;;;;;;;;;17.79;29.46;97129.72;10400986;28;2022;-51
2023/02/08 13:51:50;;;;;;;;;;;;;;;17.94;29.11;97126.69;10418260;28;1958;-51
2023/02/08 13:56:51;;;;;;;;;;;;;;;17.99;28.75;97129.47;10423980;28;1989;-49
2023/02/08 14:02:10;;;;;;;;;;;;;;;18.01;28.78;97116.91;10415963;28;1958;-51
2023/02/08 14:07:10;;;;;;;;;;;;;;;18.01;28.50;97116.91;10427608;28;2107;-50
2023/02/08 14:12:22;;;;;;;;;;;;;;;18.01;28.56;97120.31;10418360;28;1943;-53
2023/02/08 14:17:24;;;;;;;;;;;;;;;18.01;28.34;97128.19;10416499;28;2089;-50
2023/02/08 14:22:25;;;;;;;;;;;;;;;17.96;28.72;97119.41;10399007;28;2115;-48
2023/02/08 14:27:37;;;;;;;;;;;;;;;17.85;28.69;97129.63;10426351;28;2077;-49
2023/02/08 14:32:37;;;;;;;;;;;;;;;17.78;28.61;97123.66;10406686;28;1977;-49
2023/02/08 14:37:38;;;;;;;;;;;;;;;17.75;28.66;97115.44;10405228;28;2119;-50
2023/02/08 14:42:53;;;;;;;;;;;;;;;17.62;29.17;97113.03;10432452;28;2003;-48
2023/02/08 14:47:57;;;;;;;;;;;;;;;17.54;29.39;97121.97;10422488;28;1992;-49
2023/02/08 14:53:06;;;;;;;;;;;;;;;17.45;29.49;97112.81;10420003;28;2086;-48
2023/02/08 14:58:07;;;;;;;;;;;;;;;17.40;29.50;97110.03;10423821;28;1997;-50
2023/02/08 15:03:11;;;;;;;;;;;;;;;17.35;29.48;97114.34;10400029;28;1915;-48
2023/02/08 15:08:11;;;;;;;;;;;;;;;17.29;29.45;97113.38;10418848;28;2083;-47
2023/02/08 15:13:16;;;;;;;;;;;;;;;17.26;29.53;97113.84;10394438;28;2320;-49
2023/02/08 15:18:17;;;;;;;;;;;;;;;17.19;29.63;97104.47;10395370;28;2045;-48
2023/02/08 15:23:21;;;;;;;;;;;;;;;17.15;29.67;97114.56;10411844;28;1942;-53
2023/02/08 15:28:22;;;;;;;;;;;;;;;17.10;29.62;97111.81;10429117;28;1962;-49
2023/02/08 15:33:22;;;;;;;;;;;;;;;17.08;29.56;97126.94;10416834;28;2076;-50
2023/02/08 15:38:22;;;;;;;;;;;;;;;17.03;29.70;97124.97;10411321;28;2052;-50
2023/02/08 15:43:23;;;;;;;;;;;;;;;17.00;29.56;97120.16;10413796;28;2067;-51
2023/02/08 15:48:23;;;;;;;;;;;;;;;16.98;29.60;97116.16;10408877;28;2049;-50
2023/02/08 15:53:24;;;;;;;;;;;;;;;16.92;29.67;97117.00;10423956;28;1963;-51
2023/02/08 15:58:31;;;;;;;;;;;;;;;16.90;29.65;97113.81;10393334;28;1978;-49
2023/02/08 16:03:32;;;;;;;;;;;;;;;16.88;29.50;97118.47;10394267;28;2025;-48
2023/02/08 16:08:35;;;;;;;;;;;;;;;16.84;29.59;97125.97;10422799;28;2016;-48
2023/02/08 16:13:36;;;;;;;;;;;;;;;16.81;29.54;97129.03;10422843;28;2107;-49
2023/02/08 16:18:40;;;;;;;;;;;;;;;16.78;29.68;97124.22;10421642;28;1932;-51
2023/02/08 16:23:46;;;;;;;;;;;;;;;16.77;29.55;97121.81;10422251;28;2002;-49
2023/02/08 16:29:05;;;;;;;;;;;;;;;16.75;29.50;97116.81;10406799;28;1931;-52
2023/02/08 16:34:15;;;;;;;;;;;;;;;16.72;29.62;97122.47;10413128;28;1492;-49
2023/02/08 16:39:24;;;;;;;;;;;;;;;16.69;29.52;97124.72;10439069;28;1095;-49
2023/02/08 16:44:25;;;;;;;;;;;;;;;16.66;29.57;97120.72;10418973;28;1899;-47
2023/02/08 16:49:26;;;;;;;;;;;;;;;16.65;29.51;97123.53;10427543;28;2013;-47
2023/02/08 16:54:26;;;;;;;;;;;;;;;16.63;29.49;97120.34;10427310;28;2088;-52
2023/02/08 16:59:26;;;;;;;;;;;;;;;16.60;29.63;97123.38;10425005;28;2017;-51
2023/02/08 17:04:27;;;;;;;;;;;;;;;16.58;29.45;97120.19;10419771;28;2052;-49
2023/02/08 17:09:27;;;;;;;;;;;;;;;16.55;29.49;97126.63;10410248;28;2058;-53
2023/02/08 17:14:27;;;;;;;;;;;;;;;16.54;29.36;97129.47;10426550;28;2171;-51
2023/02/08 17:19:27;;;;;;;;;;;;;;;16.52;29.36;97132.31;10430196;28;1954;-48
2023/02/08 17:24:28;;;;;;;;;;;;;;;16.50;29.45;97130.91;10416856;28;2003;-51
2023/02/08 17:29:28;;;;;;;;;;;;;;;16.48;29.42;97130.31;10428454;28;1966;-48
2023/02/08 17:34:29;;;;;;;;;;;;;;;16.46;29.31;97127.91;10426568;28;2008;-49
2023/02/08 17:39:29;;;;;;;;;;;;;;;16.44;29.30;97129.94;10425842;28;2008;-48
2023/02/08 17:44:29;;;;;;;;;;;;;;;16.42;29.38;97124.13;10434984;28;2015;-51
2023/02/08 17:49:30;;;;;;;;;;;;;;;16.41;29.38;97119.88;10423796;28;2073;-53
2023/02/08 17:54:30;;;;;;;;;;;;;;;16.39;29.38;97111.44;10431700;28;2121;-49
2023/02/08 17:59:30;;;;;;;;;;;;;;;16.39;29.25;97115.88;10418812;28;1963;-53
2023/02/08 18:04:30;;;;;;;;;;;;;;;16.36;29.32;97114.50;10423895;28;2038;-48
2023/02/08 18:09:31;;;;;;;;;;;;;;;16.34;29.29;97116.53;10423735;28;2014;-51
2023/02/08 18:14:31;;;;;;;;;;;;;;;16.33;29.25;97108.88;10422917;28;1914;-52
2023/02/08 18:19:31;;;;;;;;;;;;;;;16.31;29.26;97096.00;10428438;28;2049;-51
2023/02/08 18:24:32;;;;;;;;;;;;;;;16.30;29.33;97095.19;10422264;28;2102;-47
2023/02/08 18:29:32;;;;;;;;;;;;;;;16.28;29.24;97089.38;10425186;28;2070;-47
2023/02/08 18:34:33;;;;;;;;;;;;;;;16.25;29.16;97089.81;10421813;28;1993;-51
2023/02/08 18:39:33;;;;;;;;;;;;;;;16.24;29.25;97088.22;10415834;28;1954;-53
2023/02/08 18:44:35;;;;;;;;;;;;;;;16.23;29.24;97094.47;10408790;28;2183;-50
2023/02/08 18:49:39;;;;;;;;;;;;;;;16.22;29.11;97089.44;10415752;28;2068;-53
2023/02/08 18:54:39;;;;;;;;;;;;;;;16.20;29.23;97092.28;10428494;28;1990;-49
2023/02/08 18:59:39;;;;;;;;;;;;;;;16.19;29.07;97088.06;10416028;28;2079;-49
2023/02/08 19:04:40;;;;;;;;;;;;;;;16.17;29.16;97082.25;10415225;28;1953;-52
2023/02/08 19:09:40;;;;;;;;;;;;;;;16.14;29.17;97077.44;10411929;28;1980;-50
2023/02/08 19:14:41;;;;;;;;;;;;;;;16.14;29.06;97068.78;10416775;28;2119;-51
2023/02/08 19:19:42;;;;;;;;;;;;;;;16.13;29.01;97078.47;10414023;28;1949;-51
2023/02/08 19:24:42;;;;;;;;;;;;;;;16.13;29.06;97080.25;10406394;28;1950;-51
2023/02/08 19:29:42;;;;;;;;;;;;;;;16.11;29.06;97079.69;10407876;28;1967;-51
2023/02/08 19:34:42;;;;;;;;;;;;;;;16.09;29.20;97071.25;10413323;28;2088;-53
2023/02/08 19:39:43;;;;;;;;;;;;;;;16.08;29.04;97061.78;10415481;28;1994;-48
2023/02/08 19:44:43;;;;;;;;;;;;;;;16.06;28.98;97059.38;10408227;28;1990;-48
2023/02/08 19:49:43;;;;;;;;;;;;;;;16.03;29.09;97051.94;10424655;28;1992;-51
2023/02/08 19:54:43;;;;;;;;;;;;;;;16.05;29.01;97064.84;10407801;28;1956;-52
2023/02/08 19:59:44;;;;;;;;;;;;;;;16.03;29.02;97064.25;10417457;28;1985;-51
2023/02/08 20:04:44;;;;;;;;;;;;;;;16.03;28.95;97048.56;10395224;28;2282;-49
2023/02/08 20:09:44;;;;;;;;;;;;;;;15.98;29.02;97046.56;10410122;28;2001;-51
2023/02/08 20:14:45;;;;;;;;;;;;;;;15.99;28.96;97055.22;10422833;28;1956;-51
2023/02/08 20:19:45;;;;;;;;;;;;;;;15.97;28.88;97050.19;10422300;28;1978;-51
2023/02/08 20:24:45;;;;;;;;;;;;;;;15.95;28.89;97054.84;10422650;28;2040;-51
2023/02/08 20:29:45;;;;;;;;;;;;;;;15.95;29.16;97060.06;10419247;28;2130;-52
2023/02/08 20:34:46;;;;;;;;;;;;;;;15.93;28.89;97064.69;10414495;28;1973;-54
2023/02/08 20:39:46;;;;;;;;;;;;;;;15.92;28.94;97065.72;10426684;28;2104;-49
2023/02/08 20:44:46;;;;;;;;;;;;;;;15.91;28.76;97066.72;10418639;28;1997;-48
2023/02/08 20:49:47;;;;;;;;;;;;;;;15.90;28.86;97066.94;10418915;28;1958;-47
2023/02/08 20:54:47;;;;;;;;;;;;;;;15.88;28.92;97075.00;10421084;28;1969;-49
2023/02/08 20:59:50;;;;;;;;;;;;;;;15.88;28.84;97068.97;10422936;28;2057;-51
2023/02/08 21:04:51;;;;;;;;;;;;;;;15.86;28.78;97078.84;10421983;28;2021;-51
2023/02/08 21:09:51;;;;;;;;;;;;;;;15.84;28.81;97073.84;10386540;28;1962;-51
2023/02/08 21:14:51;;;;;;;;;;;;;;;15.83;28.78;97064.38;10419037;28;2236;-50
2023/02/08 21:19:51;;;;;;;;;;;;;;;15.82;28.78;97060.19;10412711;28;2027;-50
2023/02/08 21:24:52;;;;;;;;;;;;;;;15.81;28.65;97060.38;10416146;28;2018;-53
2023/02/08 21:29:52;;;;;;;;;;;;;;;15.80;28.68;97058.78;10417646;28;2132;-52
2023/02/08 21:34:52;;;;;;;;;;;;;;;15.78;28.85;97048.53;10437076;28;2067;-50
2023/02/08 21:39:53;;;;;;;;;;;;;;;15.78;28.69;97055.56;10417313;28;1962;-50
2023/02/08 21:44:53;;;;;;;;;;;;;;;15.76;28.68;97050.56;10410243;28;2036;-49
2023/02/08 21:55:12;;;;;;;;;;;;;;;15.74;28.76;97041.31;10418852;28;2267;-53
2023/02/08 22:00:12;;;;;;;;;;;;;;;15.73;28.73;97037.91;10418758;28;2105;-48
2023/02/08 22:05:12;;;;;;;;;;;;;;;15.71;28.62;97034.69;10414185;28;2029;-52
2023/02/08 22:10:13;;;;;;;;;;;;;;;15.71;28.68;97029.47;10402552;28;2096;-51
2023/02/08 22:15:15;;;;;;;;;;;;;;;15.69;28.69;97030.69;10422655;28;2074;-50
2023/02/08 22:20:15;;;;;;;;;;;;;;;15.69;28.70;97026.28;10414129;28;1971;-48
2023/02/08 22:25:15;;;;;;;;;;;;;;;15.67;28.51;97030.09;10413246;28;1950;-51
2023/02/08 22:30:16;;;;;;;;;;;;;;;15.65;28.59;97030.31;10431274;28;1958;-52
2023/02/08 22:35:16;;;;;;;;;;;;;;;15.64;28.67;97020.84;10420098;28;1907;-49
2023/02/08 22:40:17;;;;;;;;;;;;;;;15.62;28.59;97022.88;10414757;28;2084;-51
2023/02/08 22:45:17;;;;;;;;;;;;;;;15.62;28.62;97022.88;10413075;28;1961;-50
2023/02/08 22:50:17;;;;;;;;;;;;;;;15.61;28.63;97018.69;10411111;28;1999;-49
2023/02/08 22:55:17;;;;;;;;;;;;;;;15.60;28.58;97013.69;10413018;28;2089;-53
2023/02/08 23:00:18;;;;;;;;;;;;;;;15.58;28.60;97007.88;10418563;28;2140;-51
2023/02/08 23:05:18;;;;;;;;;;;;;;;15.57;28.50;97009.66;10416597;28;2060;-53
2023/02/08 23:10:18;;;;;;;;;;;;;;;15.56;28.50;97008.06;10415913;28;2225;-54
2023/02/08 23:15:19;;;;;;;;;;;;;;;15.54;28.56;97007.47;10418696;28;2024;-52
2023/02/08 23:20:19;;;;;;;;;;;;;;;15.53;28.54;97013.72;10408913;28;2048;-53
2023/02/08 23:25:19;;;;;;;;;;;;;;;15.53;28.34;97010.28;10420817;28;2007;-52
2023/02/08 23:30:19;;;;;;;;;;;;;;;15.52;28.47;97008.72;10409213;28;1927;-50
2023/02/08 23:35:20;;;;;;;;;;;;;;;15.50;28.43;97006.28;10393096;28;2153;-52
2023/02/08 23:40:20;;;;;;;;;;;;;;;15.49;28.45;97009.94;10396060;28;2001;-51
2023/02/08 23:45:21;;;;;;;;;;;;;;;15.48;28.50;96998.66;10394516;28;1996;-51
2023/02/08 23:50:21;;;;;;;;;;;;;;;15.48;28.28;96994.47;10413082;28;1958;-51
2023/02/08 23:55:22;;;;;;;;;;;;;;;15.47;28.50;96996.28;10415147;28;2088;-50
